Time;durP1;ratioP1;P1;durP2;ratioP2;P2;SDS_P1;SDS_P2;PMS_P1;PMS_P2;Temp;Humidity;BMP_temperature;BMP_pressure;BME280_temperature;BME280_humidity;BME280_pressure;Samples;Min_cycle;Max_cycle;Signal;HPM_P1;HPM_P2
2023/06/28 00:02:02;;;;;;;8.18;6.05;;;;;;;19.86;55.27;93695.59;5052103;28;20051;-74
2023/06/28 00:04:27;;;;;;;8.45;5.80;;;;;;;19.83;55.75;93696.38;5048803;28;20080;-75
2023/06/28 00:06:53;;;;;;;7.70;6.22;;;;;;;19.86;55.66;93687.50;5047739;28;20607;-71
2023/06/28 00:09:18;;;;;;;8.50;5.97;;;;;;;19.73;55.62;93677.03;5048491;28;20059;-74
2023/06/28 00:11:45;;;;;;;8.68;6.60;;;;;;;19.80;56.20;93702.50;5050101;28;20139;-72
2023/06/28 00:14:10;;;;;;;6.88;5.72;;;;;;;19.74;56.03;93694.78;5051423;28;20036;-75
2023/06/28 00:16:36;;;;;;;7.63;6.25;;;;;;;19.79;56.19;93695.56;5049775;28;20075;-73
2023/06/28 00:19:01;;;;;;;8.35;6.45;;;;;;;19.80;56.04;93686.31;5052917;28;20373;-74
2023/06/28 00:21:27;;;;;;;7.70;5.57;;;;;;;19.71;55.92;93679.31;5046045;28;20037;-74
2023/06/28 00:23:54;;;;;;;6.95;5.90;;;;;;;19.60;56.47;93675.75;5050110;28;20523;-74
2023/06/28 00:26:21;;;;;;;6.78;5.93;;;;;;;19.83;55.95;93701.75;5048381;28;21746;-75
2023/06/28 00:28:46;;;;;;;17.92;6.97;;;;;;;19.64;56.15;93684.66;5050124;28;20217;-75
2023/06/28 00:31:12;;;;;;;8.13;6.43;;;;;;;19.64;56.64;93695.44;5047532;28;20032;-71
2023/06/28 00:33:37;;;;;;;7.03;6.32;;;;;;;19.72;56.24;93694.34;5050215;28;20101;-74
2023/06/28 00:36:03;;;;;;;9.15;6.97;;;;;;;19.78;56.11;93696.72;5049932;28;20430;-73
2023/06/28 00:38:29;;;;;;;7.78;7.05;;;;;;;19.58;56.71;93686.16;5054422;28;20063;-75
2023/06/28 00:40:55;;;;;;;9.57;8.50;;;;;;;19.71;56.75;93708.97;5050854;28;20108;-75
2023/06/28 00:43:20;;;;;;;10.40;8.02;;;;;;;19.73;56.58;93698.59;5052911;28;20048;-75
2023/06/28 00:45:46;;;;;;;8.70;7.90;;;;;;;19.68;56.42;93692.78;5052610;28;20457;-75
2023/06/28 00:48:12;;;;;;;8.70;7.90;;;;;;;19.63;56.92;93701.22;5054068;28;20130;-75
2023/06/28 00:50:38;;;;;;;9.77;8.88;;;;;;;19.67;57.07;93705.50;5050628;28;20084;-74
2023/06/28 00:53:04;;;;;;;10.43;9.48;;;;;;;19.61;56.87;93690.78;5054092;28;20032;-74
2023/06/28 00:55:30;;;;;;;11.45;9.07;;;;;;;19.56;56.91;93684.94;5054527;28;20052;-74
2023/06/28 00:57:55;;;;;;;10.35;9.45;;;;;;;19.56;57.10;93693.03;5052418;28;20024;-75
2023/06/28 01:00:21;;;;;;;10.93;9.93;;;;;;;19.54;56.97;93696.13;5055747;28;20119;-74
2023/06/28 01:02:46;;;;;;;12.40;9.98;;;;;;;19.58;57.07;93696.16;5051931;28;20040;-75
2023/06/28 01:05:15;;;;;;;10.18;8.98;;;;;;;19.65;57.04;93701.63;5055711;28;20033;-73
2023/06/28 01:07:43;;;;;;;10.05;9.05;;;;;;;19.50;57.05;93681.84;5049751;28;20039;-75
2023/06/28 01:10:09;;;;;;;10.32;9.32;;;;;;;19.43;57.14;93684.44;5056789;28;20098;-75
2023/06/28 01:12:36;;;;;;;10.60;9.57;;;;;;;19.42;57.31;93698.28;5055016;28;20032;-75
2023/06/28 01:15:03;;;;;;;10.48;9.50;;;;;;;19.36;57.67;93697.84;5054105;28;20043;-75
2023/06/28 01:17:29;;;;;;;16.83;9.88;;;;;;;19.31;57.85;93693.56;5051384;28;20028;-74
2023/06/28 01:19:54;;;;;;;10.48;9.25;;;;;;;19.38;57.71;93703.66;5052049;28;20045;-74
2023/06/28 01:22:20;;;;;;;11.57;10.48;;;;;;;19.38;57.59;93698.25;5053112;28;20035;-75
2023/06/28 01:24:46;;;;;;;11.25;9.95;;;;;;;19.44;57.20;93704.88;5050819;28;20486;-74
2023/06/28 01:27:13;;;;;;;9.55;8.55;;;;;;;19.37;57.57;93696.69;5053207;28;20551;-74
2023/06/28 01:29:39;;;;;;;10.48;9.43;;;;;;;19.25;57.53;93683.50;5052527;28;20060;-75
2023/06/28 01:32:06;;;;;;;11.57;9.85;;;;;;;19.40;57.61;93695.19;5046066;28;20457;-71
2023/06/28 01:34:32;;;;;;;9.70;8.80;;;;;;;19.17;57.69;93681.88;5048117;28;20075;-72
2023/06/28 01:37:01;;;;;;;9.13;8.23;;;;;;;19.03;58.17;93684.41;5047069;28;20464;-74
2023/06/28 01:39:30;;;;;;;12.15;9.50;;;;;;;19.13;58.35;93697.22;5054718;28;20555;-74
2023/06/28 01:41:58;;;;;;;9.60;8.07;;;;;;;19.10;58.46;93701.44;5051084;28;20119;-74
2023/06/28 01:44:24;;;;;;;11.98;9.18;;;;;;;19.09;58.25;93702.59;5052258;28;20029;-72
2023/06/28 01:46:51;;;;;;;10.02;9.02;;;;;;;19.14;58.08;93704.97;5053150;28;20059;-76
2023/06/28 01:49:17;;;;;;;10.27;9.35;;;;;;;18.96;58.46;93681.66;5051985;28;20036;-74
2023/06/28 01:51:42;;;;;;;12.95;11.43;;;;;;;19.12;57.74;93707.22;5053369;28;20024;-74
2023/06/28 01:54:08;;;;;;;12.73;10.55;;;;;;;19.03;57.82;93690.59;5053935;28;20036;-75
2023/06/28 01:57:07;;;;;;;21.85;11.57;;;;;;;19.19;57.61;93710.00;5050209;28;20033;-75
2023/06/28 01:59:32;;;;;;;13.88;12.57;;;;;;;19.24;56.61;93703.50;5049735;28;20510;-74
2023/06/28 02:01:58;;;;;;;13.35;12.02;;;;;;;19.35;56.50;93715.19;5054912;28;20095;-75
2023/06/28 02:04:23;;;;;;;15.10;13.48;;;;;;;19.41;55.83;93712.94;5052893;28;20070;-72
2023/06/28 02:06:48;;;;;;;13.93;12.02;;;;;;;19.45;55.39;93711.84;5055282;28;20208;-74
2023/06/28 02:09:14;;;;;;;14.15;12.75;;;;;;;19.30;55.91;93704.75;5051204;28;20389;-74
2023/06/28 02:11:39;;;;;;;13.02;11.73;;;;;;;19.48;55.17;93713.78;5052791;28;20047;-73
2023/06/28 02:14:05;;;;;;;12.20;11.15;;;;;;;19.48;55.29;93724.59;5050311;28;20500;-72
2023/06/28 02:16:31;;;;;;;14.00;12.70;;;;;;;19.51;55.41;93723.06;5051753;28;20036;-74
2023/06/28 02:19:00;;;;;;;13.88;12.60;;;;;;;19.51;55.32;93723.84;5053958;28;20017;-74
2023/06/28 02:21:25;;;;;;;14.05;12.68;;;;;;;19.60;54.54;93718.91;5051231;28;20043;-75
2023/06/28 02:23:51;;;;;;;13.07;11.82;;;;;;;19.60;54.86;93724.28;5051421;28;20040;-75
2023/06/28 02:26:17;;;;;;;12.65;11.45;;;;;;;19.72;54.25;93725.94;5050401;28;20654;-74
2023/06/28 02:28:42;;;;;;;12.60;11.38;;;;;;;19.67;54.59;93726.28;5052025;28;20033;-74
2023/06/28 02:31:07;;;;;;;13.20;11.88;;;;;;;19.57;55.30;93732.38;5051532;28;20029;-74
2023/06/28 02:33:33;;;;;;;12.48;11.25;;;;;;;19.48;55.73;93719.19;5052382;28;20039;-73
2023/06/28 02:35:59;;;;;;;13.40;12.02;;;;;;;19.48;55.70;93719.19;5053239;28;20037;-74
2023/06/28 02:38:24;;;;;;;12.95;11.60;;;;;;;19.52;55.23;93720.00;5054343;28;20644;-75
2023/06/28 02:40:50;;;;;;;14.85;13.40;;;;;;;19.56;55.62;93728.88;5051299;28;20737;-75
2023/06/28 02:43:15;;;;;;;12.70;11.40;;;;;;;19.49;55.68;93718.06;5053503;28;20055;-75
2023/06/28 02:45:40;;;;;;;12.48;11.38;;;;;;;19.63;55.62;93728.97;5053378;28;20028;-73
2023/06/28 02:48:06;;;;;;;12.60;11.40;;;;;;;19.59;55.68;93722.78;5052016;28;20052;-73
2023/06/28 02:50:31;;;;;;;12.70;11.50;;;;;;;19.55;55.93;93716.56;5052554;28;20496;-73
2023/06/28 02:52:56;;;;;;;13.63;12.32;;;;;;;19.61;55.52;93722.38;5047762;28;20126;-72
2023/06/28 02:55:23;;;;;;;13.55;12.13;;;;;;;19.57;55.50;93727.75;5049538;28;20574;-70
2023/06/28 02:57:48;;;;;;;13.68;12.38;;;;;;;19.48;55.77;93719.19;5050584;28;20028;-76
2023/06/28 03:00:14;;;;;;;13.82;12.32;;;;;;;19.58;55.74;93728.53;5052941;28;20068;-76
2023/06/28 03:02:39;;;;;;;13.23;11.82;;;;;;;19.58;55.55;93723.13;5053073;28;20645;-76
2023/06/28 03:05:05;;;;;;;13.15;11.85;;;;;;;19.51;55.32;93718.44;5053540;28;20082;-75
2023/06/28 03:07:30;;;;;;;13.68;12.13;;;;;;;19.62;55.77;93735.50;5055291;28;20031;-76
2023/06/28 03:09:56;;;;;;;13.68;12.48;;;;;;;19.46;55.69;93736.88;5055261;28;20283;-76
2023/06/28 03:12:21;;;;;;;14.25;12.73;;;;;;;19.40;56.02;93739.13;5051803;28;20172;-76
2023/06/28 03:14:47;;;;;;;14.82;13.43;;;;;;;19.42;56.11;93738.72;5054525;28;20044;-77
2023/06/28 03:17:12;;;;;;;13.82;12.52;;;;;;;19.28;56.46;93731.28;5053615;28;20454;-76
2023/06/28 03:19:37;;;;;;;15.13;12.15;;;;;;;19.40;55.99;93733.72;5051242;28;20060;-74
2023/06/28 03:22:03;;;;;;;14.38;12.88;;;;;;;19.40;56.13;93733.72;5053744;28;20029;-72
2023/06/28 03:24:28;;;;;;;16.02;13.43;;;;;;;19.38;56.44;93725.22;5051095;28;20039;-76
2023/06/28 03:26:55;;;;;;;14.85;13.25;;;;;;;19.31;56.25;93704.34;5054346;28;20472;-76
2023/06/28 03:29:20;;;;;;;15.02;13.43;;;;;;;19.42;56.34;93723.34;5051919;28;20703;-75
2023/06/28 03:31:46;;;;;;;15.45;13.45;;;;;;;19.48;56.21;93716.50;5054638;28;20590;-76
2023/06/28 03:34:11;;;;;;;14.85;13.45;;;;;;;19.59;56.31;93730.88;5055486;28;20021;-77
2023/06/28 08:51:30;;;;;;;14.27;10.90;;;;;;;20.58;51.73;93725.44;5047075;28;20039;-72
2023/06/28 08:53:56;;;;;;;15.35;11.27;;;;;;;20.49;52.66;93711.47;5051171;28;20043;-74
2023/06/28 08:56:22;;;;;;;14.70;10.50;;;;;;;20.74;52.54;93727.81;5050185;28;20048;-75
2023/06/28 08:58:50;;;;;;;14.70;11.27;;;;;;;20.67;52.87;93706.19;5046859;28;20323;-72
2023/06/28 09:01:16;;;;;;;19.08;10.38;;;;;;;20.65;52.02;93684.16;5048812;28;20032;-74
2023/06/28 09:03:43;;;;;;;15.32;10.98;;;;;;;20.91;52.61;93716.34;5046634;28;20484;-72
2023/06/28 09:06:09;;;;;;;14.75;11.02;;;;;;;20.28;52.61;93717.53;5053025;28;20946;-73
2023/06/28 09:08:35;;;;;;;12.80;10.75;;;;;;;20.66;54.64;93712.72;5049607;28;20055;-72
2023/06/28 09:11:01;;;;;;;12.70;10.52;;;;;;;20.63;52.80;93713.50;5050938;28;20033;-72
2023/06/28 09:13:28;;;;;;;16.33;11.35;;;;;;;20.70;52.63;93713.53;5052320;28;20028;-73
2023/06/28 09:15:54;;;;;;;13.35;9.43;;;;;;;21.01;52.13;93715.63;5045249;28;20016;-74
2023/06/28 09:18:19;;;;;;;11.55;10.45;;;;;;;20.67;51.84;93708.88;5050736;28;20466;-74
2023/06/28 09:20:49;;;;;;;11.90;10.25;;;;;;;20.51;53.23;93699.16;5049320;28;20056;-73
2023/06/28 09:23:21;;;;;;;14.40;9.90;;;;;;;20.69;52.29;93701.16;5045999;28;20390;-74
2023/06/28 09:25:49;;;;;;;11.23;10.05;;;;;;;20.82;51.46;93696.97;5060534;28;20552;-74
2023/06/28 09:28:15;;;;;;;17.38;9.93;;;;;;;20.98;53.15;93698.22;5048441;28;20119;-73
2023/06/28 09:30:41;;;;;;;11.77;9.77;;;;;;;21.21;51.75;93687.09;5048986;28;20463;-74
2023/06/28 09:33:06;;;;;;;13.13;10.35;;;;;;;21.38;50.36;93682.88;5044928;28;20040;-74
2023/06/28 09:35:32;;;;;;;11.30;10.20;;;;;;;21.46;50.10;93671.66;5048327;28;20512;-73
2023/06/28 09:38:04;;;;;;;13.93;11.23;;;;;;;21.45;50.18;93697.19;5053190;28;20165;-74
2023/06/28 09:40:33;;;;;;;10.98;9.88;;;;;;;21.63;48.85;93683.69;5048904;28;20020;-73
2023/06/28 09:42:58;;;;;;;12.43;10.15;;;;;;;21.88;48.13;93694.53;5047588;28;20392;-73
2023/06/28 09:45:28;;;;;;;13.48;11.25;;;;;;;21.98;49.56;93690.28;5049682;28;20052;-74
2023/06/28 09:47:56;;;;;;;14.05;10.45;;;;;;;21.68;48.16;93682.53;5046781;28;20143;-74
2023/06/28 09:50:21;;;;;;;11.90;10.05;;;;;;;21.67;48.82;93698.00;5047261;28;20073;-74
2023/06/28 09:52:46;;;;;;;12.98;11.05;;;;;;;21.79;47.97;93673.28;5043532;28;20416;-73
2023/06/28 09:55:12;;;;;;;12.45;11.25;;;;;;;21.84;50.56;93685.66;5049529;28;20384;-74
2023/06/28 09:57:40;;;;;;;12.60;9.43;;;;;;;21.79;48.73;93688.75;5044281;28;20668;-73
2023/06/28 10:00:06;;;;;;;11.40;10.15;;;;;;;21.43;49.25;93685.97;5040943;28;20071;-73
2023/06/28 10:02:32;;;;;;;14.52;11.75;;;;;;;21.43;49.68;93693.31;5040248;28;20133;-72
2023/06/28 10:05:00;;;;;;;11.23;10.15;;;;;;;21.55;48.43;93684.09;5039230;28;20037;-72
2023/06/28 10:07:26;;;;;;;11.50;10.40;;;;;;;21.20;49.63;93682.06;5034688;28;20024;-72
2023/06/28 10:09:53;;;;;;;12.93;11.20;;;;;;;21.34;48.73;93687.50;5038185;28;20016;-73
2023/06/28 10:12:24;;;;;;;13.38;10.82;;;;;;;20.98;49.63;93689.31;5049329;28;20636;-71
2023/06/28 10:15:01;;;;;;;13.68;11.27;;;;;;;21.31;49.05;93694.47;5041218;28;20044;-73
2023/06/28 10:17:31;;;;;;;16.85;10.52;;;;;;;21.26;49.50;93700.25;5042613;28;20490;-73
2023/06/28 10:19:59;;;;;;;13.52;11.50;;;;;;;21.29;48.79;93677.06;5039819;28;20174;-73
2023/06/28 10:22:24;;;;;;;12.30;10.48;;;;;;;21.45;50.76;93680.19;5041328;28;20429;-71
2023/06/28 10:24:52;;;;;;;12.45;10.35;;;;;;;21.39;50.54;93679.00;5035018;28;20021;-72
2023/06/28 10:27:19;;;;;;;16.85;10.88;;;;;;;21.60;49.98;93675.59;5033921;28;21229;-72
2023/06/28 10:29:49;;;;;;;11.18;10.05;;;;;;;21.70;49.21;93659.34;5039651;28;20453;-73
2023/06/28 10:32:15;;;;;;;12.52;10.30;;;;;;;21.96;49.25;93674.41;5056465;28;20037;-72
2023/06/28 10:34:40;;;;;;;16.15;10.73;;;;;;;22.00;47.96;93677.88;5037152;28;20106;-73
2023/06/28 10:37:06;;;;;;;12.38;9.85;;;;;;;21.76;49.51;93673.25;5038564;28;20225;-73
2023/06/28 10:39:37;;;;;;;12.02;10.77;;;;;;;21.97;47.60;93681.38;5037105;28;20392;-73
2023/06/28 10:42:03;;;;;;;11.43;10.20;;;;;;;21.88;48.58;93675.59;5041188;28;20145;-73
2023/06/28 10:44:28;;;;;;;17.88;12.10;;;;;;;21.79;48.61;93667.09;5038418;28;20127;-73
2023/06/28 10:47:16;;;;;;;16.05;11.13;;;;;;;21.87;47.98;93674.81;5036855;28;20060;-73
2023/06/28 10:49:42;;;;;;;12.75;10.27;;;;;;;21.91;47.35;93672.09;5030936;28;20416;-73
2023/06/28 10:52:18;;;;;;;12.43;9.13;;;;;;;21.52;48.40;93672.06;5039653;28;20537;-72
2023/06/28 10:54:45;;;;;;;11.75;10.00;;;;;;;21.56;47.98;93669.41;5033612;28;20060;-73
2023/06/28 10:57:11;;;;;;;13.55;8.20;;;;;;;21.18;48.83;93665.44;5037317;28;20028;-73
2023/06/28 10:59:41;;;;;;;12.77;9.18;;;;;;;21.38;49.30;93669.34;5038399;28;20471;-71
2023/06/28 11:02:07;;;;;;;12.75;9.77;;;;;;;21.65;48.01;93669.78;5038580;28;20045;-74
2023/06/28 11:04:32;;;;;;;12.25;9.32;;;;;;;21.70;47.61;93674.81;5034924;28;20802;-73
2023/06/28 11:07:07;;;;;;;12.43;10.07;;;;;;;21.73;48.84;93687.56;5034633;28;20028;-72
2023/06/28 11:09:32;;;;;;;13.70;8.63;;;;;;;21.74;48.81;93654.72;5035661;28;20040;-74
2023/06/28 11:11:59;;;;;;;10.65;8.57;;;;;;;22.08;47.37;93674.03;5035908;28;20668;-73
2023/06/28 11:14:30;;;;;;;12.18;9.02;;;;;;;22.08;47.21;93667.81;5038757;28;20704;-72
2023/06/28 11:17:11;;;;;;;12.43;10.48;;;;;;;22.06;47.47;93668.22;5040103;28;20060;-75
2023/06/28 11:19:38;;;;;;;11.70;9.95;;;;;;;22.32;47.59;93677.09;5042915;28;21012;-73
2023/06/28 11:22:04;;;;;;;10.90;9.32;;;;;;;22.22;45.76;93674.03;5040855;28;20026;-71
2023/06/28 11:24:29;;;;;;;10.68;9.57;;;;;;;22.04;46.81;93689.50;5040282;28;20037;-73
2023/06/28 11:26:55;;;;;;;13.07;10.07;;;;;;;21.94;47.13;93679.47;5041626;28;20729;-73
2023/06/28 11:29:21;;;;;;;11.45;9.55;;;;;;;22.04;46.60;93684.09;5043159;28;20512;-74
2023/06/28 11:31:51;;;;;;;13.10;8.85;;;;;;;21.81;46.30;93643.88;5043267;28;20518;-73
2023/06/28 11:34:18;;;;;;;10.95;9.75;;;;;;;22.15;46.42;93665.88;5043605;28;20047;-74
2023/06/28 11:36:47;;;;;;;11.75;10.02;;;;;;;22.35;46.02;93670.88;5041731;28;20058;-73
2023/06/28 11:39:22;;;;;;;11.45;9.05;;;;;;;22.42;46.22;93666.25;5044045;28;20212;-72
2023/06/28 11:41:48;;;;;;;12.27;8.27;;;;;;;22.46;47.19;93671.66;5037577;28;20082;-73
2023/06/28 11:44:14;;;;;;;11.07;8.82;;;;;;;22.38;46.26;93659.28;5055419;28;20240;-73
2023/06/28 11:46:45;;;;;;;13.10;7.43;;;;;;;22.26;45.98;93682.91;5044958;28;20029;-74
2023/06/28 11:49:11;;;;;;;12.85;8.18;;;;;;;22.15;45.79;93668.56;5043698;28;20352;-74
2023/06/28 11:51:37;;;;;;;11.60;8.38;;;;;;;21.94;46.57;93667.84;5046079;28;20105;-74
2023/06/28 11:54:07;;;;;;;8.50;6.97;;;;;;;21.87;45.63;93701.09;5039376;28;20482;-72
2023/06/28 11:56:38;;;;;;;10.30;6.90;;;;;;;21.71;46.77;93698.78;5045816;28;20036;-73
2023/06/28 11:59:12;;;;;;;13.02;5.90;;;;;;;21.67;46.62;93700.72;5041777;28;20028;-73
2023/06/28 12:01:37;;;;;;;11.23;5.88;;;;;;;21.43;47.42;93694.09;5044593;28;20043;-73
2023/06/28 12:04:12;;;;;;;7.75;5.47;;;;;;;21.38;48.24;93712.63;5040665;28;20056;-73
2023/06/28 12:06:41;;;;;;;8.63;6.05;;;;;;;21.40;47.90;93711.09;5044330;28;20045;-72
2023/06/28 12:09:35;;;;;;;8.13;6.70;;;;;;;21.46;48.00;93704.13;5043355;28;20036;-73
2023/06/28 12:12:07;;;;;;;10.80;6.00;;;;;;;21.56;47.08;93707.28;5043012;28;20040;-71
2023/06/28 12:14:43;;;;;;;7.00;5.47;;;;;;;21.55;46.46;93703.03;5036866;28;20032;-73
2023/06/28 12:17:09;;;;;;;10.70;6.85;;;;;;;21.51;47.28;93704.94;5038896;28;20040;-73
2023/06/28 12:19:38;;;;;;;8.57;5.75;;;;;;;21.32;47.30;93704.09;5042272;28;20266;-74
2023/06/28 12:22:05;;;;;;;8.73;5.50;;;;;;;21.36;47.22;93721.09;5045340;28;20433;-72
2023/06/28 12:24:32;;;;;;;7.68;4.93;;;;;;;21.29;46.40;93723.81;5041616;28;20597;-73
2023/06/28 12:26:58;;;;;;;8.50;4.25;;;;;;;21.06;47.29;93719.88;5042771;28;20037;-72
2023/06/28 12:29:26;;;;;;;9.38;5.15;;;;;;;20.74;47.77;93728.59;5043619;28;20519;-73
2023/06/28 12:31:57;;;;;;;12.73;5.93;;;;;;;20.64;47.07;93723.13;5041423;28;20094;-74
2023/06/28 12:34:27;;;;;;;9.90;5.85;;;;;;;20.66;47.77;93716.22;5042536;28;20430;-73
2023/06/28 12:36:55;;;;;;;11.93;6.18;;;;;;;20.57;49.07;93708.47;5043173;28;20021;-74
2023/06/28 12:39:25;;;;;;;6.57;4.63;;;;;;;20.73;47.86;93732.44;5044212;28;20560;-74
2023/06/28 12:42:09;;;;;;;5.28;4.50;;;;;;;20.77;48.22;93727.84;5041134;28;20075;-71
2023/06/28 12:44:55;;;;;;;8.93;5.05;;;;;;;20.77;48.55;93719.75;5041656;28;20090;-75
2023/06/28 12:47:23;;;;;;;12.77;5.38;;;;;;;20.51;47.75;93698.38;5038104;28;20067;-74
2023/06/28 12:49:51;;;;;;;7.78;4.85;;;;;;;20.89;47.99;93726.75;5036849;28;20056;-73
2023/06/28 12:52:17;;;;;;;10.23;4.53;;;;;;;20.81;47.55;93717.06;5033394;28;20035;-71
2023/06/28 12:54:43;;;;;;;6.72;5.18;;;;;;;20.95;48.15;93722.53;5034811;28;20048;-73
2023/06/28 12:57:09;;;;;;;8.02;5.30;;;;;;;20.83;48.03;93717.44;5035449;28;20401;-70
2023/06/28 12:59:36;;;;;;;7.38;5.22;;;;;;;20.73;47.91;93731.69;5043559;28;20608;-73
2023/06/28 13:02:01;;;;;;;8.30;5.93;;;;;;;20.56;47.37;93723.09;5040075;28;20041;-72
2023/06/28 13:04:31;;;;;;;8.65;5.18;;;;;;;20.65;47.88;93730.88;5042121;28;20020;-72
2023/06/28 13:06:56;;;;;;;7.28;4.90;;;;;;;20.61;48.15;93724.69;5038885;28;20559;-73
2023/06/28 13:09:22;;;;;;;9.13;4.43;;;;;;;20.37;49.19;93720.69;5041568;28;20548;-73
2023/06/28 13:11:48;;;;;;;5.88;4.90;;;;;;;20.69;48.71;93725.47;5041366;28;20599;-73
2023/06/28 13:14:15;;;;;;;9.73;4.72;;;;;;;20.57;48.53;93740.09;5039557;28;20036;-73
2023/06/28 13:16:42;;;;;;;8.73;4.57;;;;;;;20.33;48.61;93746.91;5041059;28;20277;-73
2023/06/28 13:19:07;;;;;;;6.97;5.22;;;;;;;20.16;48.79;93747.50;5041986;28;20064;-73
2023/06/28 13:21:32;;;;;;;6.03;4.15;;;;;;;19.65;49.66;93729.34;5044457;28;20186;-73
2023/06/28 13:23:58;;;;;;;7.70;4.28;;;;;;;19.81;49.98;93739.13;5037239;28;20057;-73
2023/06/28 13:26:24;;;;;;;9.10;4.60;;;;;;;19.74;50.49;93747.94;5034957;28;20387;-73
2023/06/28 13:28:49;;;;;;;8.20;4.80;;;;;;;19.70;50.05;93747.16;5040200;28;20048;-72
2023/06/28 13:31:15;;;;;;;11.48;4.32;;;;;;;19.69;49.85;93751.78;5042829;28;20123;-73
2023/06/28 13:33:40;;;;;;;6.00;4.53;;;;;;;19.42;50.71;93763.78;5041439;28;20116;-72
2023/06/28 13:36:06;;;;;;;5.35;4.65;;;;;;;19.33;51.12;93774.88;5040977;28;20044;-73
2023/06/28 13:38:31;;;;;;;5.72;4.00;;;;;;;19.02;51.70;93766.44;5038186;28;20079;-69
2023/06/28 13:40:57;;;;;;;7.40;4.32;;;;;;;18.73;52.83;93749.91;5039883;28;20427;-72
2023/06/28 13:43:22;;;;;;;7.90;4.55;;;;;;;19.02;52.35;93767.19;5037788;28;20078;-72
2023/06/28 13:45:48;;;;;;;5.57;3.40;;;;;;;19.07;51.99;93774.16;5037704;28;20020;-71
2023/06/28 13:48:14;;;;;;;7.22;3.33;;;;;;;18.88;52.25;93783.19;5043462;28;20048;-71
2023/06/28 13:50:40;;;;;;;4.55;3.47;;;;;;;18.82;51.96;93784.66;5037881;28;20921;-72
2023/06/28 13:53:06;;;;;;;7.65;3.53;;;;;;;18.36;51.79;93776.69;5040456;28;20095;-76
2023/06/28 13:55:32;;;;;;;3.63;3.33;;;;;;;18.52;52.74;93787.31;5040924;28;20595;-72
2023/06/28 13:57:58;;;;;;;5.72;4.00;;;;;;;18.37;52.64;93807.84;5021918;28;20608;-72
2023/06/28 14:00:24;;;;;;;7.35;3.78;;;;;;;18.25;53.45;93799.97;5035200;28;20037;-72
2023/06/28 14:02:49;;;;;;;7.20;4.05;;;;;;;18.07;53.36;93798.91;5032890;28;20040;-72
2023/06/28 14:05:18;;;;;;;5.55;4.00;;;;;;;17.80;54.04;93806.13;5037008;28;20845;-69
2023/06/28 14:07:44;;;;;;;4.05;3.50;;;;;;;17.52;54.67;93800.25;5037637;28;20048;-72
2023/06/28 14:10:10;;;;;;;4.95;4.22;;;;;;;17.56;54.53;93822.59;5036393;28;20082;-72
2023/06/28 14:12:37;;;;;;;6.97;3.70;;;;;;;17.52;54.08;93833.28;5036930;28;20041;-69
2023/06/28 14:15:04;;;;;;;7.28;4.35;;;;;;;17.62;53.97;93834.63;5040765;28;20444;-74
2023/06/28 14:17:29;;;;;;;4.90;3.88;;;;;;;17.22;54.40;93823.47;5036614;28;20032;-72
2023/06/28 14:19:55;;;;;;;7.93;4.68;;;;;;;17.53;54.54;93842.13;5041617;28;20401;-71
2023/06/28 14:22:20;;;;;;;6.07;4.10;;;;;;;17.46;53.87;93839.31;5038276;28;20099;-72
2023/06/28 14:24:45;;;;;;;7.18;3.72;;;;;;;17.55;53.13;93845.25;5040296;28;20032;-73
2023/06/28 14:27:11;;;;;;;4.63;3.88;;;;;;;17.64;53.38;93820.81;5038523;28;20588;-73
2023/06/28 14:29:36;;;;;;;9.48;4.03;;;;;;;17.37;53.13;93833.38;5040953;28;20033;-72
2023/06/28 14:32:02;;;;;;;6.32;3.83;;;;;;;17.45;53.50;93840.47;5037475;28;20044;-72
2023/06/28 14:34:27;;;;;;;3.95;3.22;;;;;;;17.20;53.78;93841.88;5040392;28;20463;-69
2023/06/28 14:36:53;;;;;;;4.40;3.53;;;;;;;16.93;53.94;93844.34;5041366;28;20321;-72
2023/06/28 14:39:19;;;;;;;3.70;3.00;;;;;;;16.81;53.86;93841.81;5038823;28;20237;-73
2023/06/28 14:41:45;;;;;;;6.30;3.13;;;;;;;16.77;53.95;93836.34;5036894;28;20040;-70
2023/06/28 14:44:10;;;;;;;3.85;3.38;;;;;;;16.90;54.29;93847.75;5039354;28;20037;-71
2023/06/28 14:46:36;;;;;;;8.50;3.70;;;;;;;16.82;54.12;93839.91;5041922;28;22416;-72
2023/06/28 14:49:02;;;;;;;6.55;3.05;;;;;;;16.80;53.88;93851.00;5041705;28;20028;-73
2023/06/28 14:51:28;;;;;;;4.90;3.17;;;;;;;16.82;53.90;93840.66;5041378;28;20385;-70
2023/06/28 14:53:53;;;;;;;4.85;3.10;;;;;;;16.58;53.00;93848.94;5043353;28;20051;-72
2023/06/28 14:56:19;;;;;;;3.80;2.75;;;;;;;16.33;53.48;93851.06;5043921;28;20139;-73
2023/06/28 14:58:44;;;;;;;5.07;2.85;;;;;;;16.29;54.13;93834.84;5042874;28;20036;-72
2023/06/28 15:01:09;;;;;;;5.72;3.13;;;;;;;16.43;52.86;93841.72;5045419;28;20559;-70
2023/06/28 15:03:35;;;;;;;7.18;3.80;;;;;;;16.47;52.98;93850.63;5043803;28;20051;-72
2023/06/28 15:06:00;;;;;;;4.40;2.58;;;;;;;16.39;51.80;93825.53;5041595;28;20078;-73
2023/06/28 15:08:29;;;;;;;5.57;2.75;;;;;;;16.49;51.99;93840.31;5044481;28;20048;-70
2023/06/28 15:10:54;;;;;;;5.80;2.83;;;;;;;16.64;51.45;93839.50;5042180;28;20066;-73
2023/06/28 15:13:20;;;;;;;3.60;2.47;;;;;;;16.53;51.52;93835.78;5043788;28;20058;-73
2023/06/28 15:15:46;;;;;;;5.07;2.60;;;;;;;16.30;51.39;93833.75;5044967;28;20031;-71
2023/06/28 15:18:11;;;;;;;3.47;2.42;;;;;;;16.42;50.62;93846.31;5046248;28;20041;-73
2023/06/28 15:20:36;;;;;;;4.60;2.70;;;;;;;16.18;50.76;93849.16;5040670;28;20028;-73
2023/06/28 15:23:07;;;;;;;4.18;3.20;;;;;;;16.05;51.12;93848.47;5046143;28;20045;-72
2023/06/28 15:25:32;;;;;;;3.35;2.60;;;;;;;16.12;51.08;93843.28;5039027;28;20051;-70
2023/06/28 15:27:58;;;;;;;5.30;3.22;;;;;;;16.10;51.18;93850.09;5047217;28;21004;-74
2023/06/28 15:30:24;;;;;;;3.45;2.72;;;;;;;16.13;50.80;93854.78;5040195;28;20052;-74
2023/06/28 15:32:49;;;;;;;4.35;2.78;;;;;;;16.07;51.17;93854.25;5044750;28;20507;-72
2023/06/28 15:35:15;;;;;;;4.07;2.97;;;;;;;16.12;51.16;93840.59;5041969;28;20056;-73
2023/06/28 15:37:40;;;;;;;5.05;2.97;;;;;;;16.22;50.76;93864.22;5044369;28;20041;-73
2023/06/28 15:40:07;;;;;;;4.05;2.92;;;;;;;16.19;51.60;93864.09;5043441;28;20035;-73
2023/06/28 15:42:33;;;;;;;4.57;2.50;;;;;;;16.03;51.64;93866.03;5044756;28;20036;-70
2023/06/28 15:44:59;;;;;;;4.88;3.28;;;;;;;15.85;51.86;93838.75;5041514;28;20806;-71
2023/06/28 15:47:24;;;;;;;7.32;3.78;;;;;;;16.10;53.46;93875.03;5044497;28;20040;-75
2023/06/28 15:49:50;;;;;;;32.58;19.15;;;;;;;16.21;53.32;93878.75;5041150;28;20048;-74
2023/06/28 15:52:15;;;;;;;13.07;8.23;;;;;;;16.11;52.62;93857.81;5044613;28;20212;-74
2023/06/28 15:54:43;;;;;;;5.68;4.38;;;;;;;16.17;52.28;93888.63;5042424;28;20070;-74
2023/06/28 15:57:12;;;;;;;10.02;5.43;;;;;;;16.00;52.70;93878.22;5041202;28;20041;-72
2023/06/28 15:59:37;;;;;;;4.95;3.30;;;;;;;16.19;53.37;93881.00;5042586;28;20032;-70
2023/06/28 16:02:03;;;;;;;4.85;2.33;;;;;;;16.12;53.84;93864.75;5043859;28;20293;-72
2023/06/28 16:04:28;;;;;;;3.05;2.72;;;;;;;15.90;52.38;93859.94;5040247;28;20055;-74
2023/06/28 16:06:53;;;;;;;6.85;3.00;;;;;;;15.95;54.29;93883.84;5044172;28;20035;-74
2023/06/28 16:09:20;;;;;;;3.50;2.63;;;;;;;15.63;53.88;93861.56;5040819;28;20039;-74
2023/06/28 16:11:48;;;;;;;7.75;2.95;;;;;;;15.56;55.41;93876.66;5044093;28;20048;-71
2023/06/28 16:14:14;;;;;;;6.65;2.80;;;;;;;15.60;55.89;93846.16;5044438;28;20116;-70
2023/06/28 16:16:42;;;;;;;3.42;2.60;;;;;;;15.46;57.75;93861.84;5042208;28;20037;-74
2023/06/28 16:19:08;;;;;;;6.18;3.65;;;;;;;15.45;58.92;93838.84;5043616;28;20028;-75
2023/06/28 16:21:33;;;;;;;5.15;2.83;;;;;;;15.96;58.50;93861.25;5045732;28;20044;-75
2023/06/28 16:23:59;;;;;;;3.35;2.88;;;;;;;16.06;58.24;93844.66;5043546;28;20412;-72
2023/06/28 16:26:24;;;;;;;7.43;3.30;;;;;;;16.17;57.91;93853.75;5042889;28;20538;-71
2023/06/28 16:28:50;;;;;;;4.97;3.70;;;;;;;16.09;59.85;93854.69;5041816;28;20123;-73
2023/06/28 16:31:15;;;;;;;6.22;3.65;;;;;;;16.16;59.53;93859.44;5043917;28;20036;-74
2023/06/28 16:33:41;;;;;;;7.18;4.18;;;;;;;16.23;60.12;93860.38;5042321;28;20033;-74
2023/06/28 16:36:06;;;;;;;14.25;10.23;;;;;;;16.10;59.38;93832.09;5043048;28;20470;-75
2023/06/28 16:38:32;;;;;;;8.75;5.63;;;;;;;16.11;60.01;93841.72;5042662;28;20040;-73
2023/06/28 16:40:57;;;;;;;4.32;3.10;;;;;;;16.17;58.79;93845.69;5042956;28;20037;-73